sensor_id;sensor_type;location;lat;lon;timestamp;P1;durP1;ratioP1;P2;durP2;ratioP2
9997;SDS011;5038;53.064;8.624;2023-04-30T00:00:35;8.83;;;4.30;;
9997;SDS011;5038;53.064;8.624;2023-04-30T00:03:03;9.67;;;4.83;;
9997;SDS011;5038;53.064;8.624;2023-04-30T00:05:31;8.63;;;4.87;;
9997;SDS011;5038;53.064;8.624;2023-04-30T00:07:59;7.00;;;5.03;;
9997;SDS011;5038;53.064;8.624;2023-04-30T00:10:28;10.63;;;5.63;;
9997;SDS011;5038;53.064;8.624;2023-04-30T00:12:56;9.97;;;6.07;;
9997;SDS011;5038;53.064;8.624;2023-04-30T00:15:24;12.70;;;5.57;;
9997;SDS011;5038;53.064;8.624;2023-04-30T00:17:53;10.27;;;5.50;;
9997;SDS011;5038;53.064;8.624;2023-04-30T00:20:21;12.30;;;5.50;;
9997;SDS011;5038;53.064;8.624;2023-04-30T00:22:49;9.70;;;5.40;;
9997;SDS011;5038;53.064;8.624;2023-04-30T00:25:18;8.60;;;5.93;;
9997;SDS011;5038;53.064;8.624;2023-04-30T00:27:46;10.03;;;5.20;;
9997;SDS011;5038;53.064;8.624;2023-04-30T00:30:14;9.73;;;5.67;;
9997;SDS011;5038;53.064;8.624;2023-04-30T00:32:42;8.60;;;5.40;;
9997;SDS011;5038;53.064;8.624;2023-04-30T00:35:12;10.27;;;5.90;;
9997;SDS011;5038;53.064;8.624;2023-04-30T00:37:41;10.63;;;6.27;;
9997;SDS011;5038;53.064;8.624;2023-04-30T00:40:09;8.40;;;6.03;;
9997;SDS011;5038;53.064;8.624;2023-04-30T00:42:38;13.80;;;6.07;;
9997;SDS011;5038;53.064;8.624;2023-04-30T00:45:07;9.70;;;5.93;;
9997;SDS011;5038;53.064;8.624;2023-04-30T00:47:35;9.43;;;5.73;;
9997;SDS011;5038;53.064;8.624;2023-04-30T00:50:04;9.20;;;5.77;;
9997;SDS011;5038;53.064;8.624;2023-04-30T00:52:34;13.73;;;6.10;;
9997;SDS011;5038;53.064;8.624;2023-04-30T00:55:02;9.43;;;5.77;;
9997;SDS011;5038;53.064;8.624;2023-04-30T00:57:31;8.10;;;5.27;;
9997;SDS011;5038;53.064;8.624;2023-04-30T01:00:02;6.93;;;5.00;;
9997;SDS011;5038;53.064;8.624;2023-04-30T01:02:31;9.13;;;5.77;;
9997;SDS011;5038;53.064;8.624;2023-04-30T01:05:00;9.07;;;4.90;;
9997;SDS011;5038;53.064;8.624;2023-04-30T01:07:29;8.20;;;6.10;;
9997;SDS011;5038;53.064;8.624;2023-04-30T01:09:59;10.13;;;5.50;;
9997;SDS011;5038;53.064;8.624;2023-04-30T01:12:28;8.83;;;5.63;;
9997;SDS011;5038;53.064;8.624;2023-04-30T01:15:06;9.37;;;5.40;;
9997;SDS011;5038;53.064;8.624;2023-04-30T01:17:40;9.27;;;5.30;;
9997;SDS011;5038;53.064;8.624;2023-04-30T01:20:14;8.53;;;5.77;;
9997;SDS011;5038;53.064;8.624;2023-04-30T01:22:45;6.50;;;5.40;;
9997;SDS011;5038;53.064;8.624;2023-04-30T01:28:20;9.63;;;5.50;;
9997;SDS011;5038;53.064;8.624;2023-04-30T01:30:50;9.70;;;5.73;;
9997;SDS011;5038;53.064;8.624;2023-04-30T01:33:19;8.60;;;5.70;;
9997;SDS011;5038;53.064;8.624;2023-04-30T01:35:51;8.20;;;6.00;;
9997;SDS011;5038;53.064;8.624;2023-04-30T01:38:32;8.37;;;6.00;;
9997;SDS011;5038;53.064;8.624;2023-04-30T01:41:16;8.50;;;5.77;;
9997;SDS011;5038;53.064;8.624;2023-04-30T01:44:05;8.90;;;5.63;;
9997;SDS011;5038;53.064;8.624;2023-04-30T01:46:44;9.40;;;6.17;;
9997;SDS011;5038;53.064;8.624;2023-04-30T01:49:24;12.23;;;5.93;;
9997;SDS011;5038;53.064;8.624;2023-04-30T01:51:58;6.50;;;5.23;;
9997;SDS011;5038;53.064;8.624;2023-04-30T01:54:37;7.33;;;5.83;;
9997;SDS011;5038;53.064;8.624;2023-04-30T01:57:12;10.57;;;6.13;;
9997;SDS011;5038;53.064;8.624;2023-04-30T01:59:45;11.90;;;8.37;;
9997;SDS011;5038;53.064;8.624;2023-04-30T02:02:15;10.20;;;7.50;;
9997;SDS011;5038;53.064;8.624;2023-04-30T02:04:43;8.77;;;6.80;;
9997;SDS011;5038;53.064;8.624;2023-04-30T02:07:12;10.27;;;6.47;;
9997;SDS011;5038;53.064;8.624;2023-04-30T02:09:49;11.10;;;6.97;;
9997;SDS011;5038;53.064;8.624;2023-04-30T02:12:18;9.70;;;6.40;;
9997;SDS011;5038;53.064;8.624;2023-04-30T02:14:47;10.13;;;7.77;;
9997;SDS011;5038;53.064;8.624;2023-04-30T02:17:15;10.30;;;7.67;;
9997;SDS011;5038;53.064;8.624;2023-04-30T02:19:44;10.80;;;7.30;;
9997;SDS011;5038;53.064;8.624;2023-04-30T02:22:12;9.73;;;6.47;;
9997;SDS011;5038;53.064;8.624;2023-04-30T02:24:40;10.07;;;6.53;;
9997;SDS011;5038;53.064;8.624;2023-04-30T02:27:08;8.27;;;6.23;;
9997;SDS011;5038;53.064;8.624;2023-04-30T02:29:36;7.33;;;6.30;;
9997;SDS011;5038;53.064;8.624;2023-04-30T02:32:06;7.03;;;6.13;;
9997;SDS011;5038;53.064;8.624;2023-04-30T02:34:34;9.63;;;6.50;;
9997;SDS011;5038;53.064;8.624;2023-04-30T02:37:02;11.27;;;6.03;;
9997;SDS011;5038;53.064;8.624;2023-04-30T02:39:30;12.60;;;6.70;;
9997;SDS011;5038;53.064;8.624;2023-04-30T02:41:58;10.93;;;6.53;;
9997;SDS011;5038;53.064;8.624;2023-04-30T02:44:27;8.30;;;6.23;;
9997;SDS011;5038;53.064;8.624;2023-04-30T02:46:55;8.40;;;6.60;;
9997;SDS011;5038;53.064;8.624;2023-04-30T02:49:25;10.30;;;7.47;;
9997;SDS011;5038;53.064;8.624;2023-04-30T02:51:53;10.27;;;7.17;;
9997;SDS011;5038;53.064;8.624;2023-04-30T02:54:21;8.67;;;6.43;;
9997;SDS011;5038;53.064;8.624;2023-04-30T02:56:49;9.33;;;6.30;;
9997;SDS011;5038;53.064;8.624;2023-04-30T02:59:17;10.83;;;7.30;;
9997;SDS011;5038;53.064;8.624;2023-04-30T03:01:45;11.40;;;7.00;;
9997;SDS011;5038;53.064;8.624;2023-04-30T03:04:13;13.00;;;6.97;;
9997;SDS011;5038;53.064;8.624;2023-04-30T03:06:43;9.20;;;6.47;;
9997;SDS011;5038;53.064;8.624;2023-04-30T03:09:11;10.70;;;6.43;;
9997;SDS011;5038;53.064;8.624;2023-04-30T03:11:40;10.83;;;7.77;;
9997;SDS011;5038;53.064;8.624;2023-04-30T03:14:08;15.40;;;7.00;;
9997;SDS011;5038;53.064;8.624;2023-04-30T03:16:39;10.27;;;7.17;;
9997;SDS011;5038;53.064;8.624;2023-04-30T03:19:07;8.57;;;7.03;;
9997;SDS011;5038;53.064;8.624;2023-04-30T03:21:35;10.87;;;7.97;;
9997;SDS011;5038;53.064;8.624;2023-04-30T03:24:05;11.40;;;6.67;;
9997;SDS011;5038;53.064;8.624;2023-04-30T03:26:33;11.10;;;6.73;;
9997;SDS011;5038;53.064;8.624;2023-04-30T03:29:01;9.40;;;6.17;;
9997;SDS011;5038;53.064;8.624;2023-04-30T03:31:29;9.00;;;7.00;;
9997;SDS011;5038;53.064;8.624;2023-04-30T03:33:58;12.17;;;6.43;;
9997;SDS011;5038;53.064;8.624;2023-04-30T03:36:26;9.10;;;7.20;;
9997;SDS011;5038;53.064;8.624;2023-04-30T03:38:54;11.33;;;6.70;;
9997;SDS011;5038;53.064;8.624;2023-04-30T03:41:23;9.57;;;5.97;;
9997;SDS011;5038;53.064;8.624;2023-04-30T03:43:52;9.57;;;6.37;;
9997;SDS011;5038;53.064;8.624;2023-04-30T03:46:20;9.00;;;6.27;;
9997;SDS011;5038;53.064;8.624;2023-04-30T03:48:48;9.37;;;6.50;;
9997;SDS011;5038;53.064;8.624;2023-04-30T03:51:17;13.10;;;6.93;;
9997;SDS011;5038;53.064;8.624;2023-04-30T03:53:46;7.40;;;6.03;;
9997;SDS011;5038;53.064;8.624;2023-04-30T03:56:14;7.70;;;6.80;;
9997;SDS011;5038;53.064;8.624;2023-04-30T03:58:44;10.07;;;7.10;;
9997;SDS011;5038;53.064;8.624;2023-04-30T04:01:12;8.30;;;6.90;;
9997;SDS011;5038;53.064;8.624;2023-04-30T04:03:40;9.80;;;6.57;;
9997;SDS011;5038;53.064;8.624;2023-04-30T04:06:08;9.47;;;7.17;;
9997;SDS011;5038;53.064;8.624;2023-04-30T04:08:36;9.17;;;6.60;;
9997;SDS011;5038;53.064;8.624;2023-04-30T04:11:08;8.57;;;6.07;;
9997;SDS011;5038;53.064;8.624;2023-04-30T04:13:36;12.30;;;6.93;;
9997;SDS011;5038;53.064;8.624;2023-04-30T04:16:06;8.60;;;6.43;;
9997;SDS011;5038;53.064;8.624;2023-04-30T04:18:35;10.87;;;7.30;;
9997;SDS011;5038;53.064;8.624;2023-04-30T04:21:03;11.07;;;6.83;;
9997;SDS011;5038;53.064;8.624;2023-04-30T04:23:32;11.30;;;7.53;;
9997;SDS011;5038;53.064;8.624;2023-04-30T04:26:00;8.93;;;6.30;;
9997;SDS011;5038;53.064;8.624;2023-04-30T04:28:29;9.27;;;7.37;;
9997;SDS011;5038;53.064;8.624;2023-04-30T04:30:57;12.87;;;7.83;;
9997;SDS011;5038;53.064;8.624;2023-04-30T04:33:27;9.00;;;6.47;;
9997;SDS011;5038;53.064;8.624;2023-04-30T04:35:55;9.30;;;6.70;;
9997;SDS011;5038;53.064;8.624;2023-04-30T04:38:24;11.33;;;7.53;;
9997;SDS011;5038;53.064;8.624;2023-04-30T04:40:52;8.90;;;7.17;;
9997;SDS011;5038;53.064;8.624;2023-04-30T04:43:22;13.93;;;7.90;;
9997;SDS011;5038;53.064;8.624;2023-04-30T04:45:50;13.13;;;7.53;;
9997;SDS011;5038;53.064;8.624;2023-04-30T04:48:18;9.37;;;7.40;;
9997;SDS011;5038;53.064;8.624;2023-04-30T04:50:48;10.23;;;7.50;;
9997;SDS011;5038;53.064;8.624;2023-04-30T04:53:16;9.37;;;6.83;;
9997;SDS011;5038;53.064;8.624;2023-04-30T04:55:44;12.27;;;7.47;;
9997;SDS011;5038;53.064;8.624;2023-04-30T04:58:13;9.03;;;7.63;;
9997;SDS011;5038;53.064;8.624;2023-04-30T05:00:41;13.50;;;7.13;;
9997;SDS011;5038;53.064;8.624;2023-04-30T05:03:09;11.30;;;7.70;;
9997;SDS011;5038;53.064;8.624;2023-04-30T05:05:37;11.10;;;8.00;;
9997;SDS011;5038;53.064;8.624;2023-04-30T05:08:07;23.10;;;8.00;;
9997;SDS011;5038;53.064;8.624;2023-04-30T05:10:35;12.60;;;8.10;;
9997;SDS011;5038;53.064;8.624;2023-04-30T05:13:03;13.63;;;9.07;;
9997;SDS011;5038;53.064;8.624;2023-04-30T05:15:31;12.63;;;7.63;;
9997;SDS011;5038;53.064;8.624;2023-04-30T05:17:59;8.97;;;7.23;;
9997;SDS011;5038;53.064;8.624;2023-04-30T05:20:27;11.40;;;8.20;;
9997;SDS011;5038;53.064;8.624;2023-04-30T05:22:55;11.70;;;8.43;;
9997;SDS011;5038;53.064;8.624;2023-04-30T05:25:24;12.43;;;8.43;;
9997;SDS011;5038;53.064;8.624;2023-04-30T05:27:52;10.43;;;8.50;;
9997;SDS011;5038;53.064;8.624;2023-04-30T05:30:21;10.53;;;8.53;;
9997;SDS011;5038;53.064;8.624;2023-04-30T05:32:49;12.50;;;8.00;;
9997;SDS011;5038;53.064;8.624;2023-04-30T05:35:18;18.17;;;9.63;;
9997;SDS011;5038;53.064;8.624;2023-04-30T05:37:46;14.70;;;9.77;;
9997;SDS011;5038;53.064;8.624;2023-04-30T05:40:14;12.97;;;9.77;;
9997;SDS011;5038;53.064;8.624;2023-04-30T05:42:44;16.73;;;10.27;;
9997;SDS011;5038;53.064;8.624;2023-04-30T05:45:12;12.13;;;9.20;;
9997;SDS011;5038;53.064;8.624;2023-04-30T05:47:42;14.60;;;9.73;;
9997;SDS011;5038;53.064;8.624;2023-04-30T05:50:10;14.27;;;8.90;;
9997;SDS011;5038;53.064;8.624;2023-04-30T05:52:38;13.23;;;9.30;;
9997;SDS011;5038;53.064;8.624;2023-04-30T05:55:07;14.00;;;9.20;;
9997;SDS011;5038;53.064;8.624;2023-04-30T05:57:36;14.63;;;9.57;;
9997;SDS011;5038;53.064;8.624;2023-04-30T06:00:06;11.80;;;9.73;;
9997;SDS011;5038;53.064;8.624;2023-04-30T06:02:37;13.70;;;9.87;;
9997;SDS011;5038;53.064;8.624;2023-04-30T06:05:06;11.93;;;8.97;;
9997;SDS011;5038;53.064;8.624;2023-04-30T06:07:35;12.87;;;8.97;;
9997;SDS011;5038;53.064;8.624;2023-04-30T06:10:03;12.90;;;8.80;;
9997;SDS011;5038;53.064;8.624;2023-04-30T06:12:32;13.47;;;9.27;;
9997;SDS011;5038;53.064;8.624;2023-04-30T06:15:00;13.10;;;8.43;;
9997;SDS011;5038;53.064;8.624;2023-04-30T06:17:30;21.50;;;16.00;;
9997;SDS011;5038;53.064;8.624;2023-04-30T06:19:58;9.70;;;8.17;;
9997;SDS011;5038;53.064;8.624;2023-04-30T06:22:31;13.10;;;7.80;;
9997;SDS011;5038;53.064;8.624;2023-04-30T06:25:00;10.00;;;7.90;;
9997;SDS011;5038;53.064;8.624;2023-04-30T06:27:28;15.87;;;7.13;;
9997;SDS011;5038;53.064;8.624;2023-04-30T06:29:57;10.57;;;5.60;;
9997;SDS011;5038;53.064;8.624;2023-04-30T06:32:26;9.60;;;5.73;;
9997;SDS011;5038;53.064;8.624;2023-04-30T06:34:56;12.10;;;9.27;;
9997;SDS011;5038;53.064;8.624;2023-04-30T06:37:25;11.30;;;6.10;;
9997;SDS011;5038;53.064;8.624;2023-04-30T06:39:53;8.23;;;5.90;;
9997;SDS011;5038;53.064;8.624;2023-04-30T06:42:22;13.70;;;5.73;;
9997;SDS011;5038;53.064;8.624;2023-04-30T06:44:50;6.60;;;5.00;;
9997;SDS011;5038;53.064;8.624;2023-04-30T06:47:18;9.97;;;5.50;;
9997;SDS011;5038;53.064;8.624;2023-04-30T06:49:47;9.20;;;4.47;;
9997;SDS011;5038;53.064;8.624;2023-04-30T06:52:16;7.70;;;4.40;;
9997;SDS011;5038;53.064;8.624;2023-04-30T06:54:44;8.00;;;4.63;;
9997;SDS011;5038;53.064;8.624;2023-04-30T06:57:12;10.03;;;4.57;;
9997;SDS011;5038;53.064;8.624;2023-04-30T06:59:40;8.73;;;4.70;;
9997;SDS011;5038;53.064;8.624;2023-04-30T07:02:09;7.50;;;3.97;;
9997;SDS011;5038;53.064;8.624;2023-04-30T07:04:37;6.90;;;4.13;;
9997;SDS011;5038;53.064;8.624;2023-04-30T07:07:05;8.07;;;4.63;;
9997;SDS011;5038;53.064;8.624;2023-04-30T07:09:35;11.50;;;5.87;;
9997;SDS011;5038;53.064;8.624;2023-04-30T07:12:03;5.87;;;3.80;;
9997;SDS011;5038;53.064;8.624;2023-04-30T07:14:31;7.13;;;4.00;;
9997;SDS011;5038;53.064;8.624;2023-04-30T07:16:59;8.00;;;4.17;;
9997;SDS011;5038;53.064;8.624;2023-04-30T07:19:27;6.07;;;3.70;;
9997;SDS011;5038;53.064;8.624;2023-04-30T07:21:55;7.93;;;3.60;;
9997;SDS011;5038;53.064;8.624;2023-04-30T07:24:23;8.17;;;4.37;;
9997;SDS011;5038;53.064;8.624;2023-04-30T07:26:53;6.83;;;3.30;;
9997;SDS011;5038;53.064;8.624;2023-04-30T07:29:21;8.00;;;4.07;;
9997;SDS011;5038;53.064;8.624;2023-04-30T07:31:49;8.07;;;4.00;;
9997;SDS011;5038;53.064;8.624;2023-04-30T07:34:17;6.27;;;3.87;;
9997;SDS011;5038;53.064;8.624;2023-04-30T07:36:46;7.50;;;4.43;;
9997;SDS011;5038;53.064;8.624;2023-04-30T07:39:15;8.10;;;4.70;;
9997;SDS011;5038;53.064;8.624;2023-04-30T07:41:43;10.87;;;5.77;;
9997;SDS011;5038;53.064;8.624;2023-04-30T07:44:12;11.50;;;6.70;;
9997;SDS011;5038;53.064;8.624;2023-04-30T07:46:40;10.53;;;6.17;;
9997;SDS011;5038;53.064;8.624;2023-04-30T07:49:09;7.97;;;5.37;;
9997;SDS011;5038;53.064;8.624;2023-04-30T07:51:37;12.23;;;5.63;;
9997;SDS011;5038;53.064;8.624;2023-04-30T07:54:05;8.37;;;5.57;;
9997;SDS011;5038;53.064;8.624;2023-04-30T07:56:33;10.97;;;4.80;;
9997;SDS011;5038;53.064;8.624;2023-04-30T07:59:01;13.10;;;5.10;;
9997;SDS011;5038;53.064;8.624;2023-04-30T08:01:30;10.33;;;5.70;;
9997;SDS011;5038;53.064;8.624;2023-04-30T08:03:58;10.90;;;5.30;;
9997;SDS011;5038;53.064;8.624;2023-04-30T08:06:27;8.60;;;4.27;;
9997;SDS011;5038;53.064;8.624;2023-04-30T08:08:55;7.97;;;4.63;;
9997;SDS011;5038;53.064;8.624;2023-04-30T08:11:23;8.20;;;4.40;;
9997;SDS011;5038;53.064;8.624;2023-04-30T08:13:51;7.10;;;4.50;;
9997;SDS011;5038;53.064;8.624;2023-04-30T08:16:19;8.93;;;5.27;;
9997;SDS011;5038;53.064;8.624;2023-04-30T08:18:48;7.10;;;4.60;;
9997;SDS011;5038;53.064;8.624;2023-04-30T08:21:17;11.03;;;5.13;;
9997;SDS011;5038;53.064;8.624;2023-04-30T08:23:45;11.37;;;4.23;;
9997;SDS011;5038;53.064;8.624;2023-04-30T08:26:13;8.53;;;4.47;;
9997;SDS011;5038;53.064;8.624;2023-04-30T08:28:41;8.83;;;4.13;;
9997;SDS011;5038;53.064;8.624;2023-04-30T08:31:09;7.57;;;4.50;;
9997;SDS011;5038;53.064;8.624;2023-04-30T08:33:38;8.87;;;4.50;;
9997;SDS011;5038;53.064;8.624;2023-04-30T08:36:08;10.90;;;4.53;;
9997;SDS011;5038;53.064;8.624;2023-04-30T08:38:36;9.80;;;5.10;;
9997;SDS011;5038;53.064;8.624;2023-04-30T08:41:07;8.17;;;4.40;;
9997;SDS011;5038;53.064;8.624;2023-04-30T08:43:38;10.83;;;4.77;;
9997;SDS011;5038;53.064;8.624;2023-04-30T08:46:07;9.13;;;4.40;;
9997;SDS011;5038;53.064;8.624;2023-04-30T08:48:35;10.40;;;4.77;;
9997;SDS011;5038;53.064;8.624;2023-04-30T08:51:03;6.93;;;4.40;;
9997;SDS011;5038;53.064;8.624;2023-04-30T08:53:35;6.80;;;4.40;;
9997;SDS011;5038;53.064;8.624;2023-04-30T08:56:04;7.93;;;4.30;;
9997;SDS011;5038;53.064;8.624;2023-04-30T08:58:32;8.30;;;4.70;;
9997;SDS011;5038;53.064;8.624;2023-04-30T09:01:01;10.97;;;4.40;;
9997;SDS011;5038;53.064;8.624;2023-04-30T09:03:29;8.23;;;3.90;;
9997;SDS011;5038;53.064;8.624;2023-04-30T09:05:58;7.83;;;4.30;;
9997;SDS011;5038;53.064;8.624;2023-04-30T09:08:43;7.73;;;4.30;;
9997;SDS011;5038;53.064;8.624;2023-04-30T09:11:19;8.40;;;4.30;;
9997;SDS011;5038;53.064;8.624;2023-04-30T09:13:49;7.00;;;4.47;;
9997;SDS011;5038;53.064;8.624;2023-04-30T09:16:19;9.87;;;4.30;;
9997;SDS011;5038;53.064;8.624;2023-04-30T09:18:47;7.90;;;4.50;;
9997;SDS011;5038;53.064;8.624;2023-04-30T09:21:16;8.50;;;4.83;;
9997;SDS011;5038;53.064;8.624;2023-04-30T09:23:59;5.77;;;3.97;;
9997;SDS011;5038;53.064;8.624;2023-04-30T09:26:30;10.33;;;4.07;;
9997;SDS011;5038;53.064;8.624;2023-04-30T09:28:59;6.73;;;3.97;;
9997;SDS011;5038;53.064;8.624;2023-04-30T09:31:33;6.40;;;3.87;;
9997;SDS011;5038;53.064;8.624;2023-04-30T09:34:02;6.73;;;3.73;;
9997;SDS011;5038;53.064;8.624;2023-04-30T09:36:31;10.67;;;4.23;;
9997;SDS011;5038;53.064;8.624;2023-04-30T09:39:06;7.50;;;4.10;;
9997;SDS011;5038;53.064;8.624;2023-04-30T09:41:43;8.70;;;4.40;;
9997;SDS011;5038;53.064;8.624;2023-04-30T09:44:26;6.40;;;3.77;;
9997;SDS011;5038;53.064;8.624;2023-04-30T09:46:55;9.23;;;4.47;;
9997;SDS011;5038;53.064;8.624;2023-04-30T09:49:24;10.43;;;4.27;;
9997;SDS011;5038;53.064;8.624;2023-04-30T09:51:53;11.50;;;3.90;;
9997;SDS011;5038;53.064;8.624;2023-04-30T09:54:25;7.67;;;4.30;;
9997;SDS011;5038;53.064;8.624;2023-04-30T09:56:54;9.03;;;3.67;;
9997;SDS011;5038;53.064;8.624;2023-04-30T09:59:24;7.93;;;3.90;;
9997;SDS011;5038;53.064;8.624;2023-04-30T10:01:57;6.67;;;3.47;;
9997;SDS011;5038;53.064;8.624;2023-04-30T10:04:27;7.60;;;3.80;;
9997;SDS011;5038;53.064;8.624;2023-04-30T10:06:59;6.67;;;3.83;;
9997;SDS011;5038;53.064;8.624;2023-04-30T10:09:31;10.07;;;4.40;;
9997;SDS011;5038;53.064;8.624;2023-04-30T10:12:04;8.60;;;4.63;;
9997;SDS011;5038;53.064;8.624;2023-04-30T10:14:39;9.10;;;4.70;;
9997;SDS011;5038;53.064;8.624;2023-04-30T10:17:12;7.30;;;4.70;;
9997;SDS011;5038;53.064;8.624;2023-04-30T10:19:45;11.13;;;4.97;;
9997;SDS011;5038;53.064;8.624;2023-04-30T10:22:15;8.83;;;4.40;;
9997;SDS011;5038;53.064;8.624;2023-04-30T10:24:44;6.97;;;4.00;;
9997;SDS011;5038;53.064;8.624;2023-04-30T10:27:14;9.67;;;4.90;;
9997;SDS011;5038;53.064;8.624;2023-04-30T10:29:43;7.70;;;4.30;;
9997;SDS011;5038;53.064;8.624;2023-04-30T10:32:12;6.43;;;3.77;;
9997;SDS011;5038;53.064;8.624;2023-04-30T10:34:44;8.50;;;4.33;;
9997;SDS011;5038;53.064;8.624;2023-04-30T10:37:19;8.97;;;4.73;;
9997;SDS011;5038;53.064;8.624;2023-04-30T10:39:55;8.43;;;4.20;;
9997;SDS011;5038;53.064;8.624;2023-04-30T10:42:23;8.10;;;4.57;;
9997;SDS011;5038;53.064;8.624;2023-04-30T10:44:51;7.90;;;3.73;;
9997;SDS011;5038;53.064;8.624;2023-04-30T10:47:26;6.97;;;4.30;;
9997;SDS011;5038;53.064;8.624;2023-04-30T10:50:00;7.87;;;4.30;;
9997;SDS011;5038;53.064;8.624;2023-04-30T10:52:29;5.77;;;3.60;;
9997;SDS011;5038;53.064;8.624;2023-04-30T10:55:00;6.63;;;3.70;;
9997;SDS011;5038;53.064;8.624;2023-04-30T10:57:31;10.13;;;4.63;;
9997;SDS011;5038;53.064;8.624;2023-04-30T11:00:19;5.80;;;3.53;;
9997;SDS011;5038;53.064;8.624;2023-04-30T11:02:54;5.90;;;3.97;;
9997;SDS011;5038;53.064;8.624;2023-04-30T11:05:34;9.63;;;4.30;;
9997;SDS011;5038;53.064;8.624;2023-04-30T11:08:03;9.10;;;4.43;;
9997;SDS011;5038;53.064;8.624;2023-04-30T11:10:34;7.90;;;5.43;;
9997;SDS011;5038;53.064;8.624;2023-04-30T11:13:03;6.63;;;4.00;;
9997;SDS011;5038;53.064;8.624;2023-04-30T11:15:33;11.37;;;5.47;;
9997;SDS011;5038;53.064;8.624;2023-04-30T11:18:06;9.23;;;4.43;;
9997;SDS011;5038;53.064;8.624;2023-04-30T11:20:38;6.83;;;3.70;;
9997;SDS011;5038;53.064;8.624;2023-04-30T11:23:07;7.47;;;4.90;;
9997;SDS011;5038;53.064;8.624;2023-04-30T11:25:46;11.33;;;7.20;;
9997;SDS011;5038;53.064;8.624;2023-04-30T11:28:15;11.60;;;5.40;;
9997;SDS011;5038;53.064;8.624;2023-04-30T11:30:49;7.53;;;4.83;;
9997;SDS011;5038;53.064;8.624;2023-04-30T11:33:21;8.03;;;4.53;;
9997;SDS011;5038;53.064;8.624;2023-04-30T11:35:51;15.80;;;7.27;;
9997;SDS011;5038;53.064;8.624;2023-04-30T11:38:20;7.60;;;4.50;;
9997;SDS011;5038;53.064;8.624;2023-04-30T11:40:50;9.40;;;3.90;;
9997;SDS011;5038;53.064;8.624;2023-04-30T11:43:21;7.10;;;4.37;;
9997;SDS011;5038;53.064;8.624;2023-04-30T11:45:59;7.70;;;4.83;;
9997;SDS011;5038;53.064;8.624;2023-04-30T11:48:33;8.67;;;4.53;;
9997;SDS011;5038;53.064;8.624;2023-04-30T11:51:03;9.33;;;4.70;;
9997;SDS011;5038;53.064;8.624;2023-04-30T11:53:41;8.77;;;4.53;;
9997;SDS011;5038;53.064;8.624;2023-04-30T11:56:10;8.70;;;4.40;;
9997;SDS011;5038;53.064;8.624;2023-04-30T11:58:39;7.87;;;4.47;;
9997;SDS011;5038;53.064;8.624;2023-04-30T12:01:07;6.87;;;4.27;;
9997;SDS011;5038;53.064;8.624;2023-04-30T12:03:39;8.60;;;4.73;;
9997;SDS011;5038;53.064;8.624;2023-04-30T12:06:09;7.97;;;4.47;;
9997;SDS011;5038;53.064;8.624;2023-04-30T12:08:40;8.10;;;4.30;;
9997;SDS011;5038;53.064;8.624;2023-04-30T12:11:19;8.67;;;4.43;;
9997;SDS011;5038;53.064;8.624;2023-04-30T12:13:54;9.17;;;4.97;;
9997;SDS011;5038;53.064;8.624;2023-04-30T12:16:24;7.13;;;4.50;;
9997;SDS011;5038;53.064;8.624;2023-04-30T12:18:52;8.03;;;4.43;;
9997;SDS011;5038;53.064;8.624;2023-04-30T12:21:21;8.23;;;4.83;;
9997;SDS011;5038;53.064;8.624;2023-04-30T12:23:49;7.33;;;4.70;;
9997;SDS011;5038;53.064;8.624;2023-04-30T12:26:19;10.13;;;6.70;;
9997;SDS011;5038;53.064;8.624;2023-04-30T12:28:51;9.47;;;7.53;;
9997;SDS011;5038;53.064;8.624;2023-04-30T12:31:22;12.20;;;7.00;;
9997;SDS011;5038;53.064;8.624;2023-04-30T12:33:53;21.57;;;12.10;;
9997;SDS011;5038;53.064;8.624;2023-04-30T12:36:28;17.93;;;12.60;;
9997;SDS011;5038;53.064;8.624;2023-04-30T12:41:45;7.93;;;4.30;;
9997;SDS011;5038;53.064;8.624;2023-04-30T12:44:15;7.67;;;4.83;;
9997;SDS011;5038;53.064;8.624;2023-04-30T12:46:44;9.40;;;5.20;;
9997;SDS011;5038;53.064;8.624;2023-04-30T12:49:23;9.37;;;4.83;;
9997;SDS011;5038;53.064;8.624;2023-04-30T12:51:57;7.37;;;4.20;;
9997;SDS011;5038;53.064;8.624;2023-04-30T12:54:27;7.30;;;4.00;;
9997;SDS011;5038;53.064;8.624;2023-04-30T12:56:58;6.30;;;4.60;;
9997;SDS011;5038;53.064;8.624;2023-04-30T12:59:28;7.47;;;3.83;;
9997;SDS011;5038;53.064;8.624;2023-04-30T13:02:04;7.33;;;3.87;;
9997;SDS011;5038;53.064;8.624;2023-04-30T13:04:33;7.47;;;4.20;;
9997;SDS011;5038;53.064;8.624;2023-04-30T13:07:02;6.50;;;3.90;;
9997;SDS011;5038;53.064;8.624;2023-04-30T13:09:31;7.70;;;4.23;;
9997;SDS011;5038;53.064;8.624;2023-04-30T13:12:01;7.63;;;4.40;;
9997;SDS011;5038;53.064;8.624;2023-04-30T13:14:30;8.10;;;4.17;;
9997;SDS011;5038;53.064;8.624;2023-04-30T13:16:58;7.30;;;3.90;;
9997;SDS011;5038;53.064;8.624;2023-04-30T13:19:30;5.23;;;3.80;;
9997;SDS011;5038;53.064;8.624;2023-04-30T13:21:58;9.50;;;4.10;;
9997;SDS011;5038;53.064;8.624;2023-04-30T13:24:27;6.40;;;4.13;;
9997;SDS011;5038;53.064;8.624;2023-04-30T13:26:56;7.43;;;4.23;;
9997;SDS011;5038;53.064;8.624;2023-04-30T13:29:26;8.63;;;4.40;;
9997;SDS011;5038;53.064;8.624;2023-04-30T13:31:54;9.73;;;4.93;;
9997;SDS011;5038;53.064;8.624;2023-04-30T13:34:22;8.40;;;4.60;;
9997;SDS011;5038;53.064;8.624;2023-04-30T13:36:50;7.60;;;5.50;;
9997;SDS011;5038;53.064;8.624;2023-04-30T13:39:19;9.07;;;5.03;;
9997;SDS011;5038;53.064;8.624;2023-04-30T13:41:47;9.93;;;5.27;;
9997;SDS011;5038;53.064;8.624;2023-04-30T13:44:15;6.87;;;4.37;;
9997;SDS011;5038;53.064;8.624;2023-04-30T13:46:45;6.57;;;4.20;;
9997;SDS011;5038;53.064;8.624;2023-04-30T13:49:13;12.90;;;4.87;;
9997;SDS011;5038;53.064;8.624;2023-04-30T13:51:41;8.33;;;4.57;;
9997;SDS011;5038;53.064;8.624;2023-04-30T13:54:09;7.60;;;4.47;;
9997;SDS011;5038;53.064;8.624;2023-04-30T13:56:37;11.73;;;5.50;;
9997;SDS011;5038;53.064;8.624;2023-04-30T13:59:06;8.30;;;4.30;;
9997;SDS011;5038;53.064;8.624;2023-04-30T14:01:34;8.27;;;4.20;;
9997;SDS011;5038;53.064;8.624;2023-04-30T14:04:04;8.10;;;3.87;;
9997;SDS011;5038;53.064;8.624;2023-04-30T14:06:33;7.50;;;4.50;;
9997;SDS011;5038;53.064;8.624;2023-04-30T14:09:01;5.93;;;4.03;;
9997;SDS011;5038;53.064;8.624;2023-04-30T14:11:29;6.43;;;4.23;;
9997;SDS011;5038;53.064;8.624;2023-04-30T14:13:57;7.77;;;3.97;;
9997;SDS011;5038;53.064;8.624;2023-04-30T14:16:25;6.70;;;3.60;;
9997;SDS011;5038;53.064;8.624;2023-04-30T14:18:54;6.40;;;3.80;;
9997;SDS011;5038;53.064;8.624;2023-04-30T14:21:23;8.53;;;4.20;;
9997;SDS011;5038;53.064;8.624;2023-04-30T14:23:52;7.97;;;4.50;;
9997;SDS011;5038;53.064;8.624;2023-04-30T14:26:21;6.00;;;4.20;;
9997;SDS011;5038;53.064;8.624;2023-04-30T14:28:49;9.60;;;4.60;;
9997;SDS011;5038;53.064;8.624;2023-04-30T14:31:18;9.00;;;4.33;;
9997;SDS011;5038;53.064;8.624;2023-04-30T14:33:46;5.80;;;4.00;;
9997;SDS011;5038;53.064;8.624;2023-04-30T14:36:14;7.23;;;4.80;;
9997;SDS011;5038;53.064;8.624;2023-04-30T14:38:43;8.77;;;4.30;;
9997;SDS011;5038;53.064;8.624;2023-04-30T14:41:12;9.03;;;4.40;;
9997;SDS011;5038;53.064;8.624;2023-04-30T14:43:40;5.70;;;3.83;;
9997;SDS011;5038;53.064;8.624;2023-04-30T14:46:08;8.90;;;4.20;;
9997;SDS011;5038;53.064;8.624;2023-04-30T14:48:37;7.07;;;4.40;;
9997;SDS011;5038;53.064;8.624;2023-04-30T14:51:05;6.30;;;4.17;;
9997;SDS011;5038;53.064;8.624;2023-04-30T14:53:33;5.93;;;3.93;;
9997;SDS011;5038;53.064;8.624;2023-04-30T14:56:04;5.20;;;3.40;;
9997;SDS011;5038;53.064;8.624;2023-04-30T14:58:33;7.13;;;4.17;;
9997;SDS011;5038;53.064;8.624;2023-04-30T15:01:01;6.33;;;4.10;;
9997;SDS011;5038;53.064;8.624;2023-04-30T15:03:29;6.00;;;3.77;;
9997;SDS011;5038;53.064;8.624;2023-04-30T15:05:58;9.43;;;4.23;;
9997;SDS011;5038;53.064;8.624;2023-04-30T15:08:26;7.57;;;3.80;;
9997;SDS011;5038;53.064;8.624;2023-04-30T15:10:54;6.50;;;4.20;;
9997;SDS011;5038;53.064;8.624;2023-04-30T15:13:24;7.60;;;4.40;;
9997;SDS011;5038;53.064;8.624;2023-04-30T15:15:52;8.10;;;5.00;;
9997;SDS011;5038;53.064;8.624;2023-04-30T15:18:20;10.60;;;4.13;;
9997;SDS011;5038;53.064;8.624;2023-04-30T15:20:49;8.03;;;3.90;;
9997;SDS011;5038;53.064;8.624;2023-04-30T15:23:17;6.90;;;3.83;;
9997;SDS011;5038;53.064;8.624;2023-04-30T15:25:47;6.23;;;4.13;;
9997;SDS011;5038;53.064;8.624;2023-04-30T15:28:15;9.00;;;4.43;;
9997;SDS011;5038;53.064;8.624;2023-04-30T15:30:45;7.60;;;3.87;;